Time;durP1;ratioP1;P1;durP2;ratioP2;P2;SDS_P1;SDS_P2;PMS_P1;PMS_P2;Temp;Humidity;BMP_temperature;BMP_pressure;BME280_temperature;BME280_humidity;BME280_pressure;Samples;Min_cycle;Max_cycle;Signal;HPM_P1;HPM_P2
2022/05/02 00:00:00;;;;;;;8.85;6.25;;;;;;;;;;5016704;28;20044;-70
2022/05/02 00:02:26;;;;;;;10.18;6.65;;;;;;;;;;5052025;28;20071;-69
2022/05/02 00:04:52;;;;;;;13.70;7.63;;;7.90;99.90;;;;;;5033679;28;20131;-70
2022/05/02 00:07:18;;;;;;;10.02;6.68;;;;;;;;;;5033983;28;20123;-69
2022/05/02 00:09:44;;;;;;;13.10;6.20;;;;;;;;;;5033401;28;20040;-70
2022/05/02 00:12:10;;;;;;;11.40;7.07;;;;;;;;;;5033580;28;20100;-70
2022/05/02 00:14:36;;;;;;;7.45;5.93;;;;;;;;;;5051730;28;20495;-70
2022/05/02 00:17:03;;;;;;;9.60;6.57;;;;;;;;;;5051756;28;20033;-70
2022/05/02 00:19:28;;;;;;;10.10;6.40;;;7.80;99.90;;;;;;5050913;28;20041;-69
2022/05/02 00:21:54;;;;;;;9.35;6.03;;;;;;;;;;5051617;28;20063;-70
2022/05/02 00:24:20;;;;;;;8.88;6.40;;;;;;;;;;5016908;28;20451;-70
2022/05/02 00:26:46;;;;;;;8.95;7.03;;;;;;;;;;5033497;28;20122;-70
2022/05/02 00:29:12;;;;;;;9.70;6.40;;;;;;;;;;5032767;28;20045;-70
2022/05/02 00:31:38;;;;;;;10.35;6.78;;;;;;;;;;5033424;28;20441;-70
2022/05/02 00:34:04;;;;;;;7.80;6.25;;;;;;;;;;5033673;28;20043;-70
2022/05/02 00:36:30;;;;;;;8.10;6.28;;;;;;;;;;5051374;28;20048;-70
2022/05/02 00:38:56;;;;;;;10.48;6.80;;;;;;;;;;5032656;28;20045;-69
2022/05/02 00:41:23;;;;;;;10.55;6.65;;;;;;;;;;5033250;28;20048;-69
2022/05/02 00:43:49;;;;;;;9.27;6.47;;;;;;;;;;5033630;28;20557;-69
2022/05/02 00:46:19;;;;;;;8.52;6.25;;;7.60;99.90;;;;;;5033202;28;20048;-69
2022/05/02 00:48:45;;;;;;;8.55;6.63;;;;;;;;;;5033416;28;20135;-69
2022/05/02 00:51:11;;;;;;;11.82;7.28;;;;;;;;;;5032442;28;20415;-70
2022/05/02 00:53:37;;;;;;;10.90;7.00;;;7.60;99.90;;;;;;5016954;28;20033;-69
2022/05/02 00:56:05;;;;;;;11.63;7.95;;;7.50;99.90;;;;;;5051195;28;20044;-69
2022/05/02 00:58:31;;;;;;;10.35;7.20;;;;;;;;;;5033448;28;20076;-69
2022/05/02 01:00:56;;;;;;;10.25;6.97;;;7.60;99.90;;;;;;5050461;28;20040;-69
2022/05/02 01:03:22;;;;;;;10.65;7.13;;;;;;;;;;5054209;28;20044;-69
2022/05/02 01:08:34;;;;;;;11.80;7.68;;;;;;;;;;5055349;28;20048;-69
2022/05/02 01:11:01;;;;;;;9.43;7.80;;;7.30;99.90;;;;;;5036597;28;20068;-69
2022/05/02 01:13:39;;;;;;;11.80;7.68;;;7.50;99.90;;;;;;5055087;28;20065;-70
2022/05/02 01:16:15;;;;;;;11.02;7.03;;;7.50;99.90;;;;;;5037106;28;20384;-69
2022/05/02 01:18:42;;;;;;;10.48;7.47;;;7.40;99.90;;;;;;5020458;28;20095;-69
2022/05/02 01:21:10;;;;;;;10.57;7.28;;;7.40;99.90;;;;;;5054943;28;20095;-69
2022/05/02 01:23:36;;;;;;;13.65;7.60;;;;;;;;;;5038422;28;20494;-69
2022/05/02 01:26:02;;;;;;;15.73;8.20;;;7.40;99.90;;;;;;5036911;28;20045;-69
2022/05/02 01:28:28;;;;;;;10.90;7.40;;;;;;;;;;5037189;28;20121;-69
2022/05/02 01:30:55;;;;;;;10.13;7.72;;;7.20;99.90;;;;;;5036301;28;20527;-69
2022/05/02 01:33:21;;;;;;;14.52;8.57;;;;;;;;;;5036531;28;20533;-69
2022/05/02 01:35:47;;;;;;;11.00;7.70;;;;;;;;;;5054927;28;20040;-69
2022/05/02 01:38:13;;;;;;;9.18;7.85;;;;;;;;;;5054670;28;20037;-69
2022/05/02 01:40:39;;;;;;;15.93;8.05;;;;;;;;;;5053573;28;20041;-69
2022/05/02 01:43:05;;;;;;;14.95;8.15;;;;;;;;;;5036835;28;20380;-69
2022/05/02 01:45:31;;;;;;;11.00;7.38;;;;;;;;;;5036499;28;20041;-69
2022/05/02 01:47:57;;;;;;;12.55;8.57;;;;;;;;;;5054297;28;20037;-69
2022/05/02 01:50:23;;;;;;;11.10;8.20;;;;;;;;;;5035986;28;20501;-69
2022/05/02 01:52:49;;;;;;;14.05;8.05;;;;;;;;;;5054532;28;20084;-68
2022/05/02 01:55:15;;;;;;;11.75;8.68;;;;;;;;;;5036648;28;20037;-68
2022/05/02 01:57:41;;;;;;;11.27;8.40;;;;;;;;;;5054316;28;20068;-69
2022/05/02 02:00:07;;;;;;;11.77;8.25;;;;;;;;;;5053334;28;20037;-69
2022/05/02 02:02:33;;;;;;;12.23;8.90;;;;;;;;;;5036242;28;20049;-68
2022/05/02 02:07:43;;;;;;;13.70;8.40;;;;;;;;;;5036284;28;20402;-69
2022/05/02 02:10:09;;;;;;;11.30;8.88;;;;;;;;;;5052804;28;20041;-69
2022/05/02 02:12:35;;;;;;;10.38;7.60;;;;;;;;;;5036015;28;20487;-69
2022/05/02 02:15:01;;;;;;;13.27;8.35;;;;;;;;;;5035241;28;20044;-68
2022/05/02 02:17:27;;;;;;;13.70;9.18;;;;;;;;;;5036210;28;20040;-68
2022/05/02 02:19:53;;;;;;;11.63;9.07;;;;;;;;;;5035096;28;20037;-68
2022/05/02 02:22:19;;;;;;;12.88;8.95;;;;;;;;;;5031700;28;20045;-68
2022/05/02 02:24:46;;;;;;;10.98;8.40;;;6.80;99.90;;;;;;5036142;28;20045;-69
2022/05/02 02:27:12;;;;;;;12.25;9.05;;;;;;;;;;5019298;28;20123;-68
2022/05/02 02:29:38;;;;;;;9.90;7.97;;;;;;;;;;5034836;28;20049;-69
2022/05/02 02:32:05;;;;;;;14.15;8.60;;;;;;;;;;5019059;28;20048;-69
2022/05/02 02:34:31;;;;;;;12.75;8.90;;;;;;;;;;5035531;28;20051;-69
2022/05/02 02:36:57;;;;;;;13.95;8.93;;;;;;;;;;5018972;28;20037;-69
2022/05/02 02:39:23;;;;;;;12.35;9.10;;;;;;;;;;5034828;28;20124;-69
2022/05/02 02:41:49;;;;;;;11.77;8.77;;;;;;;;;;5035378;28;20585;-68
2022/05/02 02:44:14;;;;;;;12.20;8.40;;;6.50;99.90;;;;;;5035281;28;20045;-68
2022/05/02 02:46:40;;;;;;;13.02;9.30;;;;;;;;;;5035406;28;20122;-68
2022/05/02 02:49:06;;;;;;;14.15;9.73;;;;;;;;;;5034967;28;20398;-68
2022/05/02 02:51:32;;;;;;;16.75;10.18;;;;;;;;;;5035430;28;20123;-68
2022/05/02 02:53:58;;;;;;;13.57;8.82;;;;;;;;;;5035165;28;20407;-68
2022/05/02 02:56:24;;;;;;;12.55;9.43;;;;;;;;;;5035255;28;20037;-68
2022/05/02 02:58:50;;;;;;;15.05;9.05;;;;;;;;;;5034952;28;20095;-69
2022/05/02 03:01:16;;;;;;;14.63;9.77;;;;;;;;;;5052607;28;20033;-69
2022/05/02 03:03:42;;;;;;;13.82;8.73;;;;;;;;;;5052874;28;20044;-68
2022/05/02 03:06:08;;;;;;;15.45;10.05;;;;;;;;;;5035115;28;20033;-69
2022/05/02 03:08:36;;;;;;;14.73;9.63;;;6.50;99.90;;;;;;5018726;28;20075;-68
2022/05/02 03:11:02;;;;;;;14.02;9.95;;;;;;;;;;5034160;28;20548;-68
2022/05/02 03:13:28;;;;;;;14.23;10.45;;;;;;;;;;5035033;28;20497;-68
2022/05/02 03:15:54;;;;;;;18.17;10.70;;;6.20;99.90;;;;;;5035162;28;20047;-68
2022/05/02 03:18:20;;;;;;;16.17;10.73;;;;;;;;;;5034954;28;20036;-68
2022/05/02 03:20:46;;;;;;;16.80;9.82;;;6.10;99.90;;;;;;5033969;28;20037;-69
2022/05/02 03:23:12;;;;;;;13.63;9.85;;;;;;;;;;5034698;28;20041;-68
2022/05/02 03:25:38;;;;;;;18.48;10.70;;;;;;;;;;5033535;28;20045;-68
2022/05/02 03:28:04;;;;;;;14.95;10.02;;;;;;;;;;5034383;28;20044;-68
2022/05/02 03:30:30;;;;;;;18.33;10.95;;;;;;;;;;5052260;28;20552;-68
2022/05/02 03:32:56;;;;;;;21.08;11.25;;;;;;;;;;5036430;28;20033;-69
2022/05/02 03:35:22;;;;;;;15.10;11.45;;;;;;;;;;5035157;28;20095;-69
2022/05/02 03:37:48;;;;;;;16.95;11.35;;;;;;;;;;5034715;28;20395;-68
2022/05/02 03:40:14;;;;;;;17.92;11.52;;;;;;;;;;5051245;28;20037;-68
2022/05/02 03:42:40;;;;;;;16.67;10.82;;;;;;;;;;5034627;28;20041;-68
2022/05/02 03:45:07;;;;;;;19.42;11.95;;;;;;;;;;5034464;28;20091;-68
2022/05/02 03:47:33;;;;;;;16.25;11.30;;;;;;;;;;5034287;28;20052;-68
2022/05/02 03:49:59;;;;;;;15.35;11.77;;;;;;;;;;5017439;28;20144;-68
2022/05/02 03:52:25;;;;;;;17.67;11.63;;;;;;;;;;5034284;28;20123;-68
2022/05/02 03:54:51;;;;;;;15.55;11.57;;;;;;;;;;5034218;28;20123;-68
2022/05/02 03:57:17;;;;;;;18.40;11.95;;;;;;;;;;5034322;28;20045;-68
2022/05/02 03:59:43;;;;;;;17.50;12.25;;;;;;;;;;5051425;28;20041;-68
2022/05/02 04:02:09;;;;;;;17.33;12.20;;;;;;;;;;5052069;28;20407;-68
2022/05/02 04:04:35;;;;;;;21.48;12.38;;;;;;;;;;5052188;28;20047;-68
2022/05/02 04:07:01;;;;;;;15.90;12.10;;;;;;;;;;5051942;28;20072;-68
2022/05/02 04:09:27;;;;;;;18.00;12.60;;;;;;;;;;5016505;28;20560;-68
2022/05/02 04:11:53;;;;;;;16.42;12.10;;;;;;;;;;5017678;28;20182;-68
2022/05/02 04:14:19;;;;;;;16.67;11.65;;;;;;;;;;5051804;28;20454;-69
2022/05/02 04:16:44;;;;;;;18.40;12.05;;;5.60;99.90;;;;;;5051831;28;20033;-68
2022/05/02 04:19:10;;;;;;;18.42;12.50;;;;;;;;;;5050791;28;20049;-68
2022/05/02 04:21:37;;;;;;;20.08;12.20;;;;;;;;;;5051516;28;20124;-69
2022/05/02 04:24:03;;;;;;;19.20;12.88;;;;;;;;;;5051167;28;20106;-68
2022/05/02 04:26:29;;;;;;;21.35;13.73;;;;;;;;;;5051670;28;20049;-69
2022/05/02 04:28:54;;;;;;;18.20;12.63;;;;;;;;;;5032997;28;20041;-69
2022/05/02 04:31:20;;;;;;;17.45;12.27;;;;;;;;;;5033585;28;20076;-69
2022/05/02 04:33:46;;;;;;;17.45;12.07;;;;;;;;;;5051506;28;20086;-69
2022/05/02 04:36:13;;;;;;;21.42;13.73;;;;;;;;;;5051269;28;20110;-68
2022/05/02 04:38:39;;;;;;;16.70;12.25;;;;;;;;;;5016346;28;20043;-69
2022/05/02 04:41:04;;;;;;;18.30;11.40;;;;;;;;;;5032943;28;20429;-69
2022/05/02 04:43:30;;;;;;;18.33;12.05;;;;;;;;;;5033453;28;20109;-69
2022/05/02 04:45:56;;;;;;;25.98;13.45;;;;;;;;;;5051414;28;20117;-69
2022/05/02 04:48:22;;;;;;;20.60;13.45;;;;;;;;;;5033307;28;20072;-69
2022/05/02 04:50:48;;;;;;;16.48;12.88;;;;;;;;;;5032440;28;20036;-69
2022/05/02 04:53:14;;;;;;;19.98;11.95;;;;;;;;;;5033071;28;20048;-69
2022/05/02 04:55:40;;;;;;;17.60;13.88;;;;;;;;;;5051473;28;20048;-69
2022/05/02 04:58:06;;;;;;;18.95;12.60;;;;;;;;;;5051237;28;20063;-69
2022/05/02 05:00:32;;;;;;;20.17;12.85;;;;;;;;;;5050409;28;20462;-69
2022/05/02 05:02:58;;;;;;;17.85;13.40;;;;;;;;;;5016939;28;20184;-68
2022/05/02 05:05:25;;;;;;;18.83;13.35;;;;;;;;;;5050935;28;20534;-69
2022/05/02 05:07:51;;;;;;;19.38;13.15;;;;;;;;;;5032850;28;20075;-69
2022/05/02 05:10:16;;;;;;;16.83;13.25;;;;;;;;;;5015922;28;20049;-69
2022/05/02 05:12:52;;;;;;;18.30;13.20;;;6.30;99.90;;;;;;5033071;28;20403;-68
2022/05/02 05:18:54;;;;;;;17.40;13.00;;;6.80;99.90;;;;;;5032912;28;20318;-69
2022/05/02 05:21:58;;;;;;;21.05;13.75;;;6.80;99.90;;;;;;5032940;28;20121;-68
2022/05/02 05:24:45;;;;;;;21.50;13.45;;;6.80;99.90;;;;;;5017989;28;20045;-69
2022/05/02 05:27:46;;;;;;;22.55;14.23;;;6.90;99.90;;;;;;5033316;28;20049;-69
2022/05/02 05:30:12;;;;;;;19.73;14.10;;;7.10;99.90;;;;;;5032240;28;20036;-69
2022/05/02 05:32:45;;;;;;;18.45;13.68;;;6.90;99.90;;;;;;5033054;28;20045;-68
2022/05/02 05:35:20;;;;;;;16.73;12.27;;;7.20;99.90;;;;;;5050918;28;20090;-68
2022/05/02 05:37:46;;;;;;;15.52;11.25;;;;;;;;;;5033190;28;20441;-68
2022/05/02 05:40:22;;;;;;;13.55;10.30;;;7.50;99.90;;;;;;5022808;22;20519;-70
2022/05/02 05:42:56;;;;;;;15.60;9.40;;;7.40;99.90;;;;;;4997189;28;20055;-70
2022/05/02 05:45:59;;;;;;;17.58;10.65;;;7.50;99.90;;;;;;4996989;28;20041;-70
2022/05/02 05:48:49;;;;;;;13.65;10.70;;;7.60;99.90;;;;;;5031307;28;20045;-70
2022/05/02 05:51:48;;;;;;;13.30;9.70;;;7.50;99.90;;;;;;5015958;28;20038;-70
2022/05/02 05:54:28;;;;;;;12.50;9.02;;;7.80;99.90;;;;;;5034917;28;20043;-70
2022/05/02 05:57:03;;;;;;;13.57;8.90;;;7.90;99.90;;;;;;5034730;28;20037;-69
2022/05/02 05:59:53;;;;;;;12.60;9.50;;;8.10;99.90;;;;;;5011191;28;20033;-70
2022/05/02 06:02:30;;;;;;;13.98;9.18;;;8.10;99.90;;;;;;5032709;28;20431;-70
2022/05/02 06:04:57;;;;;;;13.80;9.18;;;8.30;99.90;;;;;;5015644;28;20049;-71
2022/05/02 06:07:27;;;;;;;11.18;8.18;;;8.40;99.90;;;;;;5015846;28;20045;-71
2022/05/02 06:09:57;;;;;;;10.95;8.50;;;8.20;99.90;;;;;;5014034;28;20045;-70
2022/05/02 06:12:24;;;;;;;8.40;7.03;;;8.50;99.90;;;;;;5014939;28;20040;-70
2022/05/02 06:20:29;;;;;;;12.32;8.25;;;8.50;99.90;;;;;;5025727;28;20539;-71
2022/05/02 06:22:57;;;;;;;9.25;7.90;;;8.80;99.90;;;;;;5017832;28;20543;-71
2022/05/02 06:25:27;;;;;;;9.98;7.75;;;8.90;99.90;;;;;;5030212;28;20081;-71
2022/05/02 06:27:53;;;;;;;11.27;7.97;;;;;;;;;;5012512;28;20053;-71
2022/05/02 06:30:20;;;;;;;11.55;7.82;;;;;;;;;;4994178;28;20140;-70
2022/05/02 06:32:47;;;;;;;12.93;8.88;;;9.20;99.90;;;;;;5008510;28;20060;-71
2022/05/02 06:35:13;;;;;;;14.32;8.80;;;;;;;;;;4995546;28;20126;-71
2022/05/02 06:38:04;;;;;;;11.35;7.80;;;;;;;;;;5028826;28;20091;-71
2022/05/02 06:40:46;;;;;;;10.95;8.07;;;9.50;99.90;;;;;;5006934;28;20083;-71
2022/05/02 06:43:15;;;;;;;10.57;8.27;;;9.50;99.90;;;;;;5008845;28;20060;-71
2022/05/02 06:45:52;;;;;;;11.10;8.70;;;9.50;99.90;;;;;;5014494;28;20045;-71
2022/05/02 06:48:41;;;;;;;8.90;6.85;;;9.80;99.90;;;;;;5043377;28;20045;-71
2022/05/02 06:51:13;;;;;;;12.98;7.78;;;9.70;99.90;;;;;;5014942;28;20049;-70
2022/05/02 06:53:56;;;;;;;11.20;7.53;;;9.90;99.90;;;;;;5033481;28;20053;-70
2022/05/02 06:56:41;;;;;;;11.93;7.63;;;9.80;99.90;;;;;;5015633;28;20049;-70
2022/05/02 06:59:15;;;;;;;11.80;8.32;;;10.20;99.90;;;;;;5015494;28;20119;-70
2022/05/02 07:01:49;;;;;;;10.77;7.20;;;10.10;99.90;;;;;;5033234;28;20041;-70
2022/05/02 07:04:47;;;;;;;12.57;7.00;;;10.40;99.90;;;;;;5014225;28;20077;-70
2022/05/02 07:07:42;;;;;;;9.30;6.57;;;10.40;99.90;;;;;;5014387;28;20049;-71
2022/05/02 07:10:21;;;;;;;9.48;5.85;;;10.50;99.90;;;;;;4998663;28;20103;-71
2022/05/02 07:12:55;;;;;;;9.85;5.88;;;10.50;99.90;;;;;;5013280;28;20487;-71
2022/05/02 07:15:27;;;;;;;10.10;6.28;;;10.70;99.90;;;;;;5033774;28;20041;-71
2022/05/02 07:18:03;;;;;;;9.45;6.40;;;10.80;99.90;;;;;;5015721;28;20071;-71
2022/05/02 07:20:42;;;;;;;12.13;6.60;;;10.80;99.90;;;;;;5032776;28;20034;-71
2022/05/02 07:23:32;;;;;;;11.00;6.75;;;11.10;99.90;;;;;;5033471;28;20080;-71
2022/05/02 07:26:06;;;;;;;9.75;7.78;;;10.90;99.90;;;;;;5015453;28;20049;-71
2022/05/02 07:28:45;;;;;;;;;;;10.70;99.90;;;;;;4996857;28;20372;-72
2022/05/02 07:31:18;;;;;;;8.25;7.20;;;11.10;99.90;;;;;;5014757;28;20011;-71
2022/05/02 07:33:46;;;;;;;10.88;6.65;;;11.20;99.90;;;;;;5027001;28;20163;-71
2022/05/02 07:36:17;;;;;;;8.77;6.72;;;11.30;99.90;;;;;;5030991;28;20049;-71
2022/05/02 07:38:53;;;;;;;10.57;7.50;;;11.40;99.90;;;;;;5032764;28;20040;-71
2022/05/02 07:41:27;;;;;;;9.23;7.07;;;11.50;99.90;;;;;;5011195;28;20029;-71
2022/05/02 07:44:05;;;;;;;9.10;7.43;;;11.60;99.90;;;;;;5029218;28;20561;-71
2022/05/02 07:46:34;;;;;;;11.05;7.38;;;11.70;99.90;;;;;;5028011;28;20033;-71
2022/05/02 07:49:03;;;;;;;9.07;7.65;;;11.70;99.90;;;;;;5031789;28;20037;-71
2022/05/02 07:51:30;;;;;;;10.77;6.82;;;11.80;99.90;;;;;;5032000;28;20041;-71
2022/05/02 07:53:58;;;;;;;10.07;7.40;;;11.90;99.90;;;;;;5014254;28;20041;-71
2022/05/02 07:56:26;;;;;;;12.02;8.27;;;12.10;99.90;;;;;;5014515;28;20493;-71
2022/05/02 07:58:54;;;;;;;13.25;7.45;;;11.80;99.90;;;;;;5031088;28;20116;-71
2022/05/02 08:01:21;;;;;;;12.05;8.85;;;11.80;99.90;;;;;;5013075;28;20041;-73
2022/05/02 08:03:47;;;;;;;11.57;7.95;;;12.10;99.90;;;;;;5014375;28;20037;-71
2022/05/02 08:06:38;;;;;;;13.30;7.75;;;12.20;99.90;;;;;;5014329;28;20507;-71
2022/05/02 08:09:34;;;;;;;12.75;8.00;;;12.20;99.90;;;;;;5030911;28;20124;-71
2022/05/02 08:12:07;;;;;;;10.02;7.07;;;12.30;99.90;;;;;;5031293;28;20412;-71
2022/05/02 08:14:46;;;;;;;;;;;12.30;99.90;;;;;;5032758;28;20129;-71
2022/05/02 08:18:00;;;;;;;12.23;7.38;;;12.30;99.90;;;;;;5014482;28;20295;-72
2022/05/02 08:20:35;;;;;;;11.70;7.05;;;12.40;99.90;;;;;;4959921;28;20539;-71
2022/05/02 08:29:21;;;;;;;13.60;7.57;;;12.60;99.90;;;;;;5030471;28;20053;-72
2022/05/02 08:31:51;;;;;;;11.35;7.20;;;12.80;99.90;;;;;;5015538;28;20053;-70
2022/05/02 08:34:24;;;;;;;12.25;8.57;;;13.00;99.90;;;;;;5031435;28;20041;-71
2022/05/02 08:37:13;;;;;;;10.55;7.72;;;13.10;99.90;;;;;;5025878;28;20603;-71
2022/05/02 08:40:01;;;;;;;11.65;7.50;;;12.80;99.90;;;;;;5020102;28;20045;-71
2022/05/02 08:43:12;;;;;;;10.20;7.10;;;13.30;99.90;;;;;;5030962;28;20112;-71
2022/05/02 08:45:38;;;;;;;11.73;7.47;;;;;;;;;;5013817;28;20048;-71
2022/05/02 08:48:19;;;;;;;11.80;7.85;;;13.40;99.90;;;;;;5031275;28;20116;-71
2022/05/02 08:51:21;;;;;;;10.13;7.43;;;13.40;99.90;;;;;;5030394;28;20078;-71
2022/05/02 08:54:30;;;;;;;12.68;7.78;;;13.40;99.90;;;;;;5013598;28;20048;-71
2022/05/02 08:57:25;;;;;;;8.98;7.28;;;13.40;99.90;;;;;;5013621;28;20123;-72
2022/05/02 09:00:28;;;;;;;8.88;6.97;;;13.60;99.90;;;;;;5012401;28;20125;-72
2022/05/02 09:03:32;;;;;;;15.25;7.45;;;13.50;99.90;;;;;;4989851;28;20049;-72
2022/05/02 09:06:50;;;;;;;10.20;7.18;;;13.70;99.90;;;;;;5031142;28;20038;-71
2022/05/02 09:09:34;;;;;;;12.93;8.38;;;13.90;99.90;;;;;;5029903;28;20533;-72
2022/05/02 09:12:19;;;;;;;12.13;8.10;;;13.60;99.90;;;;;;4996817;28;20049;-71
2022/05/02 09:15:13;;;;;;;9.98;7.10;;;13.70;99.90;;;;;;4979291;28;20400;-72
2022/05/02 09:17:51;;;;;;;9.35;6.93;;;13.80;99.90;;;;;;5031000;28;20104;-72
2022/05/02 09:20:44;;;;;;;9.57;7.20;;;14.00;99.90;;;;;;5012537;28;20048;-72
2022/05/02 09:23:29;;;;;;;10.18;6.60;;;14.00;99.90;;;;;;5015724;28;20041;-72
2022/05/02 09:26:33;;;;;;;11.35;6.15;;;14.10;99.90;;;;;;5034888;28;20045;-72
2022/05/02 09:29:39;;;;;;;8.43;5.97;;;14.40;99.90;;;;;;5033002;28;20091;-71
2022/05/02 09:32:29;;;;;;;10.52;6.30;;;14.50;99.90;;;;;;5033655;28;20246;-72
2022/05/02 09:35:01;;;;;;;7.15;6.05;;;14.70;99.90;;;;;;5022498;28;20156;-72
2022/05/02 09:37:40;;;;;;;11.18;6.53;;;14.80;99.90;;;;;;5016736;28;20037;-72
2022/05/02 09:40:12;;;;;;;9.32;6.32;;;14.90;99.90;;;;;;4999542;28;20045;-72
2022/05/02 09:42:59;;;;;;;12.65;6.55;;;15.10;99.90;;;;;;5016939;28;20569;-72
2022/05/02 09:51:11;;;;;;;7.53;6.13;;;15.40;99.90;;;;;;5027911;28;20044;-72
2022/05/02 09:54:06;;;;;;;9.98;6.32;;;15.30;99.30;;;;;;5036375;28;20044;-72
2022/05/02 09:56:45;;;;;;;8.90;7.18;;;15.40;99.90;;;;;;5036533;28;20072;-72
2022/05/02 09:59:28;;;;;;;10.85;6.00;;;15.60;99.90;;;;;;5053474;28;20091;-72
2022/05/02 10:02:23;;;;;;;10.15;7.03;;;15.50;99.90;;;;;;5036277;28;20095;-72
2022/05/02 10:05:07;;;;;;;11.27;6.55;;;15.80;99.90;;;;;;5041438;28;20037;-72
2022/05/02 10:07:57;;;;;;;9.15;6.35;;;15.90;99.90;;;;;;5034056;28;20085;-72
2022/05/02 10:10:42;;;;;;;7.55;6.00;;;15.60;99.90;;;;;;4999138;28;20056;-72
2022/05/02 10:13:43;;;;;;;6.30;5.57;;;15.80;99.90;;;;;;5034205;28;20042;-72
2022/05/02 10:16:46;;;;;;;9.45;5.38;;;15.90;99.90;;;;;;5016238;28;20045;-72
2022/05/02 10:19:20;;;;;;;8.52;5.70;;;15.60;98.70;;;;;;5033590;28;20100;-72
2022/05/02 10:22:08;;;;;;;5.95;4.95;;;15.90;98.10;;;;;;5016869;28;20407;-72
2022/05/02 10:24:52;;;;;;;6.30;5.05;;;16.00;98.90;;;;;;5033971;28;20053;-72
2022/05/02 10:27:51;;;;;;;9.20;4.82;;;16.00;99.90;;;;;;5016226;28;20034;-72
2022/05/02 10:30:19;;;;;;;9.02;5.68;;;16.30;99.80;;;;;;5033344;28;20044;-73
2022/05/02 10:32:56;;;;;;;8.25;6.13;;;16.20;98.90;;;;;;5032311;28;20037;-73
2022/05/02 10:35:23;;;;;;;7.47;5.95;;;16.40;99.10;;;;;;5029601;28;20376;-72
2022/05/02 10:37:59;;;;;;;8.57;6.13;;;16.60;99.90;;;;;;5015789;28;20037;-73
2022/05/02 10:40:58;;;;;;;9.48;5.95;;;16.90;98.90;;;;;;5015292;28;20037;-74
2022/05/02 10:43:25;;;;;;;15.82;5.90;;;16.40;98.00;;;;;;5025816;28;20049;-73
2022/05/02 10:45:52;;;;;;;8.52;5.75;;;16.20;98.80;;;;;;5011858;28;20053;-71
2022/05/02 10:48:17;;;;;;;10.50;5.75;;;15.80;98.10;;;;;;5012010;28;20457;-71
2022/05/02 10:51:09;;;;;;;10.18;6.07;;;16.20;98.50;;;;;;5021708;28;20041;-72
2022/05/02 10:53:56;;;;;;;7.30;5.78;;;16.10;97.60;;;;;;5048894;28;20047;-71
2022/05/02 10:56:40;;;;;;;7.40;5.85;;;16.00;98.20;;;;;;5052460;28;20098;-73
2022/05/02 10:59:06;;;;;;;9.13;5.68;;;16.60;99.20;;;;;;5033438;28;20387;-72
2022/05/02 11:02:13;;;;;;;11.75;6.05;;;16.40;98.30;;;;;;5034782;28;20047;-72
2022/05/02 11:05:11;;;;;;;6.97;5.47;;;15.90;97.80;;;;;;5027016;28;20056;-72
2022/05/02 11:07:54;;;;;;;10.40;5.78;;;15.80;97.60;;;;;;5031750;28;20041;-73
2022/05/02 11:10:24;;;;;;;7.10;4.82;;;15.70;97.80;;;;;;5031620;28;20037;-71
2022/05/02 11:13:05;;;;;;;10.60;5.70;;;15.90;98.40;;;;;;5015142;28;20048;-71
2022/05/02 11:15:54;;;;;;;9.93;5.35;;;16.20;97.70;;;;;;4999275;28;20045;-72
2022/05/02 11:22:04;;;;;;;8.82;5.85;;;16.10;97.70;;;;;;5032352;28;20411;-73
2022/05/02 11:24:30;;;;;;;7.97;4.85;;;15.90;97.10;;;;;;4962659;28;20043;-73
2022/05/02 11:27:20;;;;;;;8.18;4.95;;;16.20;98.00;;;;;;5022496;28;20064;-73
2022/05/02 11:30:07;;;;;;;8.68;4.88;;;16.60;97.90;;;;;;5014318;28;20116;-73
2022/05/02 11:32:57;;;;;;;7.60;5.20;;;16.60;97.20;;;;;;5014577;28;20107;-73
2022/05/02 11:35:28;;;;;;;6.15;4.40;;;16.00;96.50;;;;;;5032099;28;20080;-73
2022/05/02 11:38:01;;;;;;;5.97;4.88;;;16.20;97.40;;;;;;5014490;28;20034;-73
2022/05/02 11:40:35;;;;;;;6.45;4.70;;;16.40;96.60;;;;;;5063775;22;20052;-68
2022/05/02 11:43:03;;;;;;;5.30;4.50;;;16.50;96.70;;;;;;5052200;28;20573;-68
2022/05/02 11:46:10;;;;;;;6.53;4.78;;;16.30;97.20;;;;;;5033881;28;20072;-68
2022/05/02 11:48:51;;;;;;;5.75;4.78;;;16.80;97.80;;;;;;5032618;28;20044;-68
2022/05/02 11:51:47;;;;;;;7.97;4.40;;;17.10;96.40;;;;;;5066752;28;20083;-68
2022/05/02 11:54:26;;;;;;;6.00;4.10;;;16.80;96.00;;;;;;5068327;28;20052;-68
2022/05/02 11:57:19;;;;;;;5.57;3.83;;;16.80;95.30;;;;;;5046396;28;20127;-69
2022/05/02 12:00:02;;;;;;;5.90;3.72;;;16.50;95.30;;;;;;5039187;28;20079;-69
2022/05/02 12:02:37;;;;;;;6.70;3.60;;;17.00;95.60;;;;;;5046226;28;20037;-69
2022/05/02 12:05:17;;;;;;;6.72;4.38;;;17.20;95.50;;;;;;5050459;28;20047;-69
2022/05/02 12:07:49;;;;;;;7.40;4.20;;;17.20;95.30;;;;;;5051855;28;20037;-68
2022/05/02 12:10:17;;;;;;;5.20;3.63;;;17.60;97.00;;;;;;5049629;28;20044;-68
2022/05/02 12:12:51;;;;;;;6.72;3.40;;;17.20;99.70;;;;;;5050285;28;20299;-69
2022/05/02 12:15:18;;;;;;;6.85;3.60;;;;;;;;;;5050194;28;20044;-69
2022/05/02 12:18:06;;;;;;;4.50;3.80;;;;;;;;;;5049790;28;20079;-68
2022/05/02 12:20:39;;;;;;;6.97;3.40;;;17.30;99.80;;;;;;5051017;28;20040;-69
2022/05/02 12:23:09;;;;;;;5.15;3.35;;;17.20;98.90;;;;;;5051393;28;20051;-68
2022/05/02 12:25:45;;;;;;;5.10;3.22;;;17.50;99.50;;;;;;5050340;28;20443;-69
2022/05/02 12:28:11;;;;;;;6.50;4.32;;;17.50;99.50;;;;;;5034172;28;20076;-69
2022/05/02 12:30:39;;;;;;;5.60;3.40;;;17.30;99.60;;;;;;5029924;28;20519;-68
2022/05/02 12:33:06;;;;;;;5.40;3.20;;;17.70;99.90;;;;;;5036500;28;20120;-68
2022/05/02 12:35:37;;;;;;;3.95;3.50;;;17.60;99.40;;;;;;5013389;28;20494;-69
2022/05/02 12:38:24;;;;;;;6.60;3.88;;;;;;;;;;5048713;28;20369;-69
2022/05/02 12:41:34;;;;;;;9.50;5.63;;;;;;;;;;5048998;28;20040;-69
2022/05/02 12:44:07;;;;;;;8.93;4.63;;;;;;;;;;5041037;28;20152;-69
2022/05/02 12:46:39;;;;;;;6.43;4.38;;;17.80;94.40;;;;;;5032522;28;20143;-68
2022/05/02 12:49:06;;;;;;;8.23;5.05;;;17.70;94.70;;;;;;5035670;28;20546;-69
2022/05/02 12:51:33;;;;;;;7.28;5.10;;;17.50;94.80;;;;;;5065444;28;20059;-69
2022/05/02 12:54:14;;;;;;;7.47;4.85;;;17.70;95.30;;;;;;5069495;28;20123;-69
2022/05/02 13:02:36;;;;;;;5.90;4.20;;;17.10;94.70;;;;;;5071127;28;20076;-69
2022/05/02 13:05:10;;;;;;;7.10;4.90;;;18.40;95.40;;;;;;5069859;28;20112;-69
2022/05/02 13:07:56;;;;;;;7.47;4.97;;;17.70;95.10;;;;;;5053183;28;20516;-68
2022/05/02 13:10:24;;;;;;;8.65;4.65;;;19.50;95.30;;;;;;5068625;28;20048;-69
2022/05/02 13:13:04;;;;;;;7.38;4.25;;;17.80;95.00;;;;;;5071002;28;20047;-69
2022/05/02 13:15:38;;;;;;;5.50;4.10;;;18.20;95.00;;;;;;5069343;28;20391;-69
2022/05/02 13:18:09;;;;;;;4.90;3.70;;;18.30;94.60;;;;;;5069690;28;20072;-69
2022/05/02 13:20:36;;;;;;;9.25;4.72;;;17.90;95.30;;;;;;5068954;28;20029;-69
2022/05/02 13:23:17;;;;;;;6.15;4.30;;;18.50;95.60;;;;;;5048477;28;20043;-69
2022/05/02 13:26:07;;;;;;;6.63;4.35;;;18.30;95.30;;;;;;5050836;28;20123;-69
2022/05/02 13:28:55;;;;;;;5.65;5.03;;;18.50;96.10;;;;;;5050963;28;20044;-69
2022/05/02 13:31:33;;;;;;;5.28;4.47;;;19.20;96.20;;;;;;5032351;28;20132;-69
2022/05/02 13:34:04;;;;;;;5.97;4.47;;;18.50;96.00;;;;;;5049265;28;20045;-69
2022/05/02 13:36:39;;;;;;;8.45;4.35;;;17.90;95.40;;;;;;5032839;28;20309;-69
2022/05/02 13:39:14;;;;;;;7.35;4.80;;;18.60;95.80;;;;;;5048807;28;20103;-69
2022/05/02 13:41:54;;;;;;;5.88;4.97;;;18.50;95.80;;;;;;5049582;28;20063;-69
2022/05/02 13:44:55;;;;;;;7.70;5.45;;;18.00;96.40;;;;;;5049346;28;20072;-69
2022/05/02 13:47:26;;;;;;;6.40;4.38;;;18.30;95.90;;;;;;5050508;28;20573;-69
2022/05/02 13:50:05;;;;;;;8.82;4.45;;;18.60;96.40;;;;;;5051843;28;20442;-70
2022/05/02 13:52:40;;;;;;;6.47;4.93;;;20.30;96.30;;;;;;5069175;28;20123;-69
2022/05/02 13:55:11;;;;;;;10.15;5.65;;;18.50;96.70;;;;;;5069352;28;20595;-69
2022/05/02 13:57:46;;;;;;;7.50;4.65;;;18.50;96.70;;;;;;5069601;28;20032;-69
2022/05/02 14:01:21;;;;;;;4.82;4.30;;;18.10;96.10;;;;;;5068142;28;20036;-69
2022/05/02 14:03:32;;;;;;;6.30;4.43;;;18.30;96.30;;;;;;5070151;28;20047;-69
2022/05/02 14:06:00;;;;;;;8.15;4.45;;;18.20;95.80;;;;;;5054079;28;20048;-69
2022/05/02 14:08:42;;;;;;;6.70;4.22;;;17.50;96.40;;;;;;5068722;28;20067;-69
2022/05/02 14:11:13;;;;;;;8.25;4.78;;;17.30;96.90;;;;;;5070469;28;20085;-70
2022/05/02 14:13:39;;;;;;;7.97;4.63;;;17.60;97.20;;;;;;5073539;28;20642;-69
2022/05/02 14:16:05;;;;;;;5.57;3.95;;;17.20;96.70;;;;;;5073409;28;20046;-68
2022/05/02 14:18:47;;;;;;;5.35;4.70;;;17.60;97.40;;;;;;5067347;28;20033;-67
2022/05/02 14:21:13;;;;;;;5.60;4.00;;;17.80;97.30;;;;;;5035408;28;20034;-69
2022/05/02 14:23:46;;;;;;;6.05;3.78;;;18.30;97.40;;;;;;5042379;28;20040;-69
2022/05/02 14:26:12;;;;;;;13.48;7.10;;;17.90;96.60;;;;;;5052260;28;20045;-69
2022/05/02 14:28:44;;;;;;;9.68;5.68;;;18.20;96.30;;;;;;5052300;28;20064;-69
2022/05/02 14:31:10;;;;;;;9.13;5.82;;;18.20;96.30;;;;;;5051625;28;20049;-69
2022/05/02 14:33:38;;;;;;;9.45;5.15;;;18.30;96.50;;;;;;5052067;28;20494;-69